Time;durP1;ratioP1;P1;durP2;ratioP2;P2;SDS_P1;SDS_P2;PMS_P1;PMS_P2;Temp;Humidity;BMP_temperature;BMP_pressure;BME280_temperature;BME280_humidity;BME280_pressure;Samples;Min_cycle;Max_cycle;Signal;HPM_P1;HPM_P2
2021/07/07 00:02:14;;;;;;;4.72;4.30;;;18.80;99.90;;;;;;4937433;29;20240;-45
2021/07/07 00:04:42;;;;;;;7.88;4.93;;;18.90;99.90;;;;;;4936666;29;20295;-42
2021/07/07 00:07:10;;;;;;;6.63;5.00;;;18.90;99.90;;;;;;4936906;29;20232;-43
2021/07/07 00:09:38;;;;;;;4.90;4.40;;;19.00;99.90;;;;;;4937144;29;20235;-46
2021/07/07 00:12:07;;;;;;;4.78;4.38;;;19.00;99.90;;;;;;4936706;29;20307;-42
2021/07/07 00:14:35;;;;;;;5.28;4.82;;;19.00;99.90;;;;;;4936835;29;20404;-44
2021/07/07 00:17:03;;;;;;;5.45;4.30;;;19.00;99.90;;;;;;4936594;29;20659;-44
2021/07/07 00:19:33;;;;;;;4.55;4.15;;;19.00;99.90;;;;;;4936618;29;20247;-43
2021/07/07 00:22:01;;;;;;;4.47;4.13;;;19.00;99.90;;;;;;4936480;29;20665;-45
2021/07/07 00:24:29;;;;;;;4.40;4.10;;;19.00;99.90;;;;;;4937372;29;20319;-42
2021/07/07 00:26:57;;;;;;;4.78;4.38;;;19.00;99.90;;;;;;4936531;29;20314;-41
2021/07/07 00:29:25;;;;;;;5.13;4.70;;;19.00;99.90;;;;;;4936556;29;20222;-47
2021/07/07 00:31:53;;;;;;;5.07;4.57;;;19.00;99.90;;;;;;4936622;29;20223;-47
2021/07/07 00:34:21;;;;;;;6.20;4.82;;;19.00;99.90;;;;;;4936646;29;20307;-42
2021/07/07 00:36:50;;;;;;;4.95;4.55;;;19.00;99.90;;;;;;4936736;29;20291;-43
2021/07/07 00:39:18;;;;;;;4.88;4.00;;;19.00;99.90;;;;;;4936433;29;20295;-47
2021/07/07 00:41:46;;;;;;;4.95;4.50;;;19.00;99.90;;;;;;4936452;29;20310;-43
2021/07/07 00:44:14;;;;;;;4.80;4.40;;;19.00;99.90;;;;;;4936505;29;20212;-46
2021/07/07 00:46:45;;;;;;;4.63;4.30;;;18.90;99.90;;;;;;4936267;29;20232;-43
2021/07/07 00:49:14;;;;;;;4.72;4.05;;;18.90;99.90;;;;;;4936430;29;20236;-46
2021/07/07 00:51:42;;;;;;;4.40;4.00;;;18.80;99.90;;;;;;4936300;29;20314;-47
2021/07/07 00:54:15;;;;;;;4.47;4.07;;;18.80;99.90;;;;;;4936494;29;20216;-43
2021/07/07 00:56:44;;;;;;;4.35;3.95;;;18.80;99.90;;;;;;4936355;29;20212;-43
2021/07/07 00:59:12;;;;;;;4.95;4.18;;;18.80;99.90;;;;;;4936366;29;20211;-42
2021/07/07 01:01:41;;;;;;;3.83;3.53;;;18.80;99.90;;;;;;4936197;29;20743;-42
2021/07/07 01:04:09;;;;;;;3.47;2.67;;;18.80;99.90;;;;;;4936221;29;20554;-43
2021/07/07 01:06:37;;;;;;;2.38;2.17;;;18.80;99.90;;;;;;4935868;29;20327;-43
2021/07/07 01:09:05;;;;;;;4.45;1.90;;;18.80;99.90;;;;;;4936019;29;20212;-43
2021/07/07 01:11:35;;;;;;;2.30;1.98;;;18.70;99.90;;;;;;4935995;29;20294;-43
2021/07/07 01:14:03;;;;;;;2.33;1.98;;;18.80;99.90;;;;;;4935935;29;20212;-44
2021/07/07 01:16:31;;;;;;;2.53;2.10;;;18.70;99.90;;;;;;4935806;29;20308;-43
2021/07/07 01:19:00;;;;;;;3.63;2.15;;;18.70;99.90;;;;;;4935730;29;20311;-41
2021/07/07 01:21:28;;;;;;;4.15;2.63;;;18.60;99.90;;;;;;4936001;29;20298;-41
2021/07/07 01:23:57;;;;;;;3.47;2.40;;;18.60;99.90;;;;;;4935562;29;20250;-44
2021/07/07 01:26:25;;;;;;;2.75;2.53;;;18.60;99.90;;;;;;4935712;29;20295;-40
2021/07/07 01:28:53;;;;;;;2.55;2.30;;;18.60;99.90;;;;;;4935821;29;20304;-42
2021/07/07 01:31:21;;;;;;;2.90;2.20;;;18.50;99.90;;;;;;4935403;29;20219;-41
2021/07/07 01:33:49;;;;;;;2.28;2.13;;;18.50;99.90;;;;;;4935849;29;20243;-40
2021/07/07 01:36:17;;;;;;;2.22;2.08;;;18.50;99.90;;;;;;4935648;29;20212;-41
2021/07/07 01:38:45;;;;;;;2.10;2.00;;;18.50;99.90;;;;;;4935556;29;20216;-42
2021/07/07 01:41:15;;;;;;;2.03;1.92;;;18.50;99.90;;;;;;4935397;29;20323;-41
2021/07/07 01:43:42;;;;;;;3.78;2.22;;;18.50;99.90;;;;;;4935346;29;20755;-40
2021/07/07 01:46:10;;;;;;;3.40;2.63;;;18.50;99.90;;;;;;4935148;29;20212;-42
2021/07/07 01:48:38;;;;;;;3.58;2.10;;;18.40;99.90;;;;;;4935063;29;20244;-43
2021/07/07 01:51:06;;;;;;;2.22;2.03;;;18.40;99.90;;;;;;4935344;29;20306;-42
2021/07/07 01:53:34;;;;;;;2.97;2.15;;;18.40;99.90;;;;;;4935199;29;20222;-41
2021/07/07 01:56:02;;;;;;;2.45;2.22;;;18.40;99.90;;;;;;4935081;29;20219;-43
2021/07/07 01:58:32;;;;;;;2.80;2.28;;;18.40;99.90;;;;;;4935121;29;20298;-42
2021/07/07 02:01:00;;;;;;;3.03;2.20;;;18.30;99.90;;;;;;4934994;29;20262;-41
2021/07/07 02:03:28;;;;;;;3.95;2.97;;;18.30;99.90;;;;;;4935264;29;20240;-41
2021/07/07 02:05:56;;;;;;;3.60;2.47;;;18.30;99.90;;;;;;4935379;29;20215;-44
2021/07/07 02:08:24;;;;;;;2.50;2.30;;;18.30;99.90;;;;;;4935132;29;20327;-43
2021/07/07 02:10:52;;;;;;;2.70;2.50;;;18.30;99.90;;;;;;4935019;29;20244;-42
2021/07/07 02:13:21;;;;;;;2.72;2.53;;;18.30;99.90;;;;;;4934798;29;20238;-43
2021/07/07 02:15:51;;;;;;;5.32;2.85;;;18.30;99.90;;;;;;4934836;29;20679;-43
2021/07/07 02:18:19;;;;;;;4.88;2.65;;;18.30;99.90;;;;;;4934913;29;20295;-42
2021/07/07 02:20:48;;;;;;;2.75;2.55;;;18.30;99.90;;;;;;4934709;29;20222;-42
2021/07/07 02:23:16;;;;;;;3.85;2.60;;;18.30;99.90;;;;;;4934704;29;20235;-41
2021/07/07 02:25:45;;;;;;;4.20;2.63;;;18.30;99.90;;;;;;4934794;29;20218;-40
2021/07/07 02:28:15;;;;;;;6.32;2.83;;;18.20;99.90;;;;;;4934775;29;20232;-45
2021/07/07 02:30:44;;;;;;;2.70;2.50;;;18.30;99.90;;;;;;4934911;29;20220;-45
2021/07/07 02:33:14;;;;;;;2.63;2.38;;;18.20;99.90;;;;;;4934884;29;20294;-41
2021/07/07 02:35:44;;;;;;;2.58;2.38;;;18.20;99.90;;;;;;4934727;29;20690;-43
2021/07/07 02:38:14;;;;;;;4.25;2.90;;;18.20;99.90;;;;;;4934708;29;20251;-41
2021/07/07 02:40:44;;;;;;;3.13;2.92;;;18.20;99.90;;;;;;4934929;29;20299;-43
2021/07/07 02:43:12;;;;;;;3.75;2.55;;;18.20;99.90;;;;;;4934904;29;20672;-45
2021/07/07 02:45:42;;;;;;;2.80;2.58;;;18.20;99.90;;;;;;4934721;29;20216;-43
2021/07/07 02:48:11;;;;;;;2.92;2.67;;;18.20;99.90;;;;;;4934427;29;20603;-43
2021/07/07 02:50:41;;;;;;;2.67;2.47;;;18.20;99.90;;;;;;4934207;29;20283;-42
2021/07/07 02:53:13;;;;;;;4.60;3.42;;;18.20;99.90;;;;;;4934776;29;20335;-44
2021/07/07 02:55:41;;;;;;;3.85;2.70;;;18.20;99.90;;;;;;4934567;29;20683;-44
2021/07/07 02:58:09;;;;;;;3.35;3.05;;;18.20;99.90;;;;;;4934506;29;20622;-42
2021/07/07 03:00:38;;;;;;;4.68;2.97;;;18.20;99.90;;;;;;4934755;29;20222;-46
2021/07/07 03:03:08;;;;;;;2.42;2.22;;;18.20;99.90;;;;;;4934517;29;20223;-43
2021/07/07 03:05:39;;;;;;;6.78;3.22;;;18.20;99.90;;;;;;4934680;29;20236;-42
2021/07/07 03:08:10;;;;;;;3.60;3.25;;;18.10;99.90;;;;;;4934586;29;20319;-45
2021/07/07 03:10:39;;;;;;;3.47;3.15;;;18.10;99.90;;;;;;4934468;29;20219;-41
2021/07/07 03:13:07;;;;;;;3.78;3.38;;;18.20;99.90;;;;;;4934418;29;20314;-43
2021/07/07 03:15:37;;;;;;;3.50;3.25;;;18.20;99.90;;;;;;4934458;29;20302;-41
2021/07/07 03:18:06;;;;;;;3.33;3.03;;;18.20;99.90;;;;;;4934936;29;20603;-41
2021/07/07 03:20:35;;;;;;;3.20;2.95;;;18.10;99.90;;;;;;4938014;29;20755;-40
2021/07/07 03:23:04;;;;;;;3.03;2.83;;;18.10;99.90;;;;;;4938215;29;20239;-42
2021/07/07 03:25:34;;;;;;;3.33;3.03;;;18.10;99.90;;;;;;4937978;29;20307;-41
2021/07/07 03:28:02;;;;;;;3.78;2.88;;;18.10;99.90;;;;;;4937818;29;20715;-45
2021/07/07 03:30:30;;;;;;;3.30;3.00;;;18.10;99.90;;;;;;4938027;29;20246;-48
2021/07/07 03:32:59;;;;;;;4.50;2.78;;;18.10;99.90;;;;;;4937766;29;20306;-46
2021/07/07 03:35:27;;;;;;;4.63;2.88;;;18.10;99.90;;;;;;4937914;29;20216;-45
2021/07/07 03:37:56;;;;;;;2.88;2.67;;;18.10;99.90;;;;;;4937693;29;20271;-44
2021/07/07 03:40:26;;;;;;;4.07;3.25;;;18.10;99.90;;;;;;4937602;29;20774;-47
2021/07/07 03:42:56;;;;;;;3.28;3.05;;;18.10;99.90;;;;;;4937700;29;20328;-47
2021/07/07 03:45:26;;;;;;;3.50;3.22;;;18.10;99.90;;;;;;4937660;29;20247;-44
2021/07/07 03:47:54;;;;;;;3.33;3.03;;;18.10;99.90;;;;;;4937345;29;20295;-43
2021/07/07 03:50:24;;;;;;;3.33;3.00;;;18.10;99.90;;;;;;4937922;29;20275;-43
2021/07/07 03:52:53;;;;;;;2.95;2.65;;;18.10;99.90;;;;;;4937424;29;20216;-45
2021/07/07 03:55:23;;;;;;;3.90;2.78;;;18.10;99.90;;;;;;4937423;29;20228;-49
2021/07/07 03:57:52;;;;;;;5.60;2.90;;;18.10;99.90;;;;;;4937368;29;20231;-45
2021/07/07 04:00:25;;;;;;;3.22;2.97;;;18.10;99.90;;;;;;4937259;29;20220;-43
2021/07/07 04:02:54;;;;;;;3.20;2.90;;;18.10;99.90;;;;;;4936912;29;20675;-50
2021/07/07 04:05:22;;;;;;;3.95;3.03;;;18.10;99.90;;;;;;4936853;29;20212;-46
2021/07/07 04:07:50;;;;;;;3.38;3.08;;;18.10;99.90;;;;;;4936606;29;20212;-44
2021/07/07 04:10:19;;;;;;;3.67;3.15;;;18.10;99.90;;;;;;4937139;29;20223;-47
2021/07/07 04:12:49;;;;;;;5.05;2.50;;;18.10;99.90;;;;;;4936923;29;20302;-47
2021/07/07 04:15:18;;;;;;;2.55;2.33;;;18.10;99.90;;;;;;4936876;29;20220;-42
2021/07/07 04:17:48;;;;;;;2.60;2.40;;;18.10;99.90;;;;;;4936393;29;20215;-44
2021/07/07 04:20:19;;;;;;;7.93;7.22;;;18.10;99.90;;;;;;4936328;29;20212;-43
2021/07/07 04:22:47;;;;;;;6.10;3.08;;;18.10;99.90;;;;;;4935989;29;20227;-46
2021/07/07 04:25:16;;;;;;;6.00;5.50;;;18.10;99.90;;;;;;4937322;29;20328;-42
2021/07/07 04:27:45;;;;;;;4.53;4.13;;;18.10;99.90;;;;;;4936487;29;20651;-42
2021/07/07 04:30:17;;;;;;;3.72;2.70;;;18.20;99.90;;;;;;4936352;29;20284;-43
2021/07/07 04:32:48;;;;;;;2.92;2.50;;;18.20;99.90;;;;;;4936607;29;20303;-46
2021/07/07 04:35:18;;;;;;;3.42;2.58;;;18.20;99.90;;;;;;4936781;29;20239;-47
2021/07/07 04:37:47;;;;;;;3.17;2.28;;;18.20;99.90;;;;;;4936651;29;20768;-42
2021/07/07 04:40:18;;;;;;;3.08;2.80;;;18.20;99.90;;;;;;4936480;29;20214;-42
2021/07/07 04:42:46;;;;;;;3.20;2.97;;;18.20;99.90;;;;;;4936626;29;20303;-44
2021/07/07 04:45:15;;;;;;;4.72;2.33;;;18.20;99.90;;;;;;4936479;29;20568;-42
2021/07/07 04:47:43;;;;;;;2.60;2.40;;;18.30;99.90;;;;;;4936536;29;20314;-43
2021/07/07 04:50:16;;;;;;;4.57;2.75;;;18.30;99.90;;;;;;4936533;29;20264;-43
2021/07/07 04:52:44;;;;;;;2.75;2.33;;;18.30;99.90;;;;;;4936495;29;20303;-45
2021/07/07 04:55:14;;;;;;;4.68;2.33;;;18.30;99.90;;;;;;4936525;29;20561;-42
2021/07/07 04:57:42;;;;;;;2.03;1.90;;;18.40;99.90;;;;;;4936108;29;20212;-44
2021/07/07 05:00:15;;;;;;;3.35;3.05;;;18.40;99.90;;;;;;4937081;29;20209;-45
2021/07/07 05:02:44;;;;;;;2.67;2.47;;;18.50;99.90;;;;;;4936995;29;20212;-46
2021/07/07 05:05:15;;;;;;;2.30;2.10;;;18.50;99.90;;;;;;4936146;29;20299;-47
2021/07/07 05:07:44;;;;;;;4.50;2.75;;;18.50;99.90;;;;;;4936059;29;20219;-44
2021/07/07 05:10:13;;;;;;;2.58;2.38;;;18.60;99.90;;;;;;4935951;29;20232;-47
2021/07/07 05:12:41;;;;;;;2.20;2.03;;;18.50;99.90;;;;;;4936281;29;20228;-46
2021/07/07 05:15:11;;;;;;;7.80;2.88;;;18.50;99.90;;;;;;4936217;29;20307;-47
2021/07/07 05:17:39;;;;;;;4.13;2.40;;;18.50;99.90;;;;;;4935919;29;20215;-45
2021/07/07 05:20:08;;;;;;;4.97;2.80;;;18.50;99.90;;;;;;4935942;29;20223;-49
2021/07/07 05:22:39;;;;;;;3.53;2.92;;;18.50;99.90;;;;;;4935895;29;20216;-45
2021/07/07 05:25:08;;;;;;;2.67;2.47;;;18.50;99.90;;;;;;4936275;29;20246;-43
2021/07/07 05:27:36;;;;;;;3.10;2.83;;;18.50;99.90;;;;;;4936123;29;20283;-44
2021/07/07 05:30:06;;;;;;;3.72;3.03;;;18.40;99.90;;;;;;4935726;29;20599;-45
2021/07/07 05:32:34;;;;;;;3.22;3.03;;;18.40;99.90;;;;;;4935804;29;20246;-42
2021/07/07 05:35:03;;;;;;;3.65;3.10;;;18.40;99.90;;;;;;4936777;29;20579;-47
2021/07/07 05:37:30;;;;;;;4.70;2.88;;;18.40;99.90;;;;;;4936619;29;20559;-45
2021/07/07 05:40:00;;;;;;;5.15;3.40;;;18.30;99.90;;;;;;4935657;29;20299;-47
2021/07/07 05:42:28;;;;;;;3.67;3.33;;;18.40;99.90;;;;;;4935533;29;20240;-44
2021/07/07 05:44:56;;;;;;;5.85;3.05;;;18.40;99.90;;;;;;4936083;29;20271;-46
2021/07/07 05:47:24;;;;;;;4.18;3.45;;;18.40;99.90;;;;;;4935883;29;20279;-44
2021/07/07 05:49:55;;;;;;;4.35;4.00;;;18.50;99.90;;;;;;4935164;29;20228;-43
2021/07/07 05:52:24;;;;;;;3.38;2.85;;;18.50;99.90;;;;;;4935230;29;20299;-44
2021/07/07 05:54:52;;;;;;;3.60;3.30;;;18.50;99.90;;;;;;4935159;29;20360;-45
2021/07/07 05:57:24;;;;;;;4.90;4.00;;;18.50;99.90;;;;;;4935201;29;20236;-43
2021/07/07 05:59:52;;;;;;;5.07;4.10;;;18.50;99.90;;;;;;4935138;29;20637;-44
2021/07/07 06:02:20;;;;;;;4.80;4.25;;;18.60;99.90;;;;;;4934968;29;20311;-43
2021/07/07 06:04:48;;;;;;;4.65;4.05;;;18.60;99.90;;;;;;4935113;29;20319;-44
2021/07/07 06:07:16;;;;;;;6.53;3.88;;;18.60;99.90;;;;;;4935054;29;20295;-44
2021/07/07 06:09:44;;;;;;;4.43;4.00;;;18.60;99.90;;;;;;4934839;29;20315;-48
2021/07/07 06:12:12;;;;;;;4.72;4.32;;;18.60;99.90;;;;;;4934868;29;20651;-48
2021/07/07 06:14:41;;;;;;;3.80;3.50;;;18.60;99.90;;;;;;4934771;29;20306;-44
2021/07/07 06:17:09;;;;;;;3.55;3.35;;;18.70;99.90;;;;;;4935015;29;20244;-43
2021/07/07 06:19:37;;;;;;;4.25;3.67;;;18.70;99.90;;;;;;4934764;29;20298;-47
2021/07/07 06:22:05;;;;;;;5.93;5.43;;;18.80;99.90;;;;;;4936203;29;20292;-47
2021/07/07 06:24:33;;;;;;;4.75;4.35;;;18.80;99.90;;;;;;4934733;29;20212;-49
2021/07/07 06:27:01;;;;;;;4.57;3.72;;;18.80;99.90;;;;;;4936880;28;20640;-46
2021/07/07 06:29:29;;;;;;;8.48;4.10;;;18.90;99.90;;;;;;4934627;29;20699;-46
2021/07/07 06:31:58;;;;;;;4.60;3.70;;;18.90;99.90;;;;;;4934827;29;20279;-45
2021/07/07 06:34:26;;;;;;;3.80;3.22;;;18.90;99.90;;;;;;4934455;29;20219;-49
2021/07/07 06:36:54;;;;;;;3.75;3.28;;;18.90;99.90;;;;;;4934541;29;20244;-45
2021/07/07 06:39:22;;;;;;;4.32;2.33;;;18.90;99.90;;;;;;4934620;29;20628;-45
2021/07/07 06:41:50;;;;;;;4.63;2.88;;;18.90;99.90;;;;;;4934300;29;20319;-44
2021/07/07 06:44:18;;;;;;;6.97;2.90;;;19.00;99.90;;;;;;4934355;29;20672;-43
2021/07/07 06:46:46;;;;;;;3.88;3.55;;;19.00;99.90;;;;;;4934171;29;20258;-45
2021/07/07 06:49:16;;;;;;;3.67;3.38;;;18.90;99.90;;;;;;4934421;29;20212;-49
2021/07/07 06:51:45;;;;;;;8.30;3.95;;;18.90;99.90;;;;;;4934464;29;20212;-46
2021/07/07 06:54:13;;;;;;;4.10;2.70;;;18.90;99.90;;;;;;4938330;29;20572;-47
2021/07/07 06:56:40;;;;;;;3.47;3.17;;;18.90;99.90;;;;;;4938512;29;20212;-46
2021/07/07 06:59:08;;;;;;;3.25;2.95;;;18.90;99.90;;;;;;4938315;29;20222;-45
2021/07/07 07:01:36;;;;;;;4.55;4.15;;;18.90;99.90;;;;;;4938276;29;20299;-45
2021/07/07 07:04:05;;;;;;;6.80;3.55;;;18.90;99.90;;;;;;4937651;29;20573;-48
2021/07/07 07:06:35;;;;;;;3.58;3.28;;;18.90;99.90;;;;;;4938102;29;20238;-44
2021/07/07 07:09:04;;;;;;;3.97;3.67;;;18.90;99.90;;;;;;4937913;29;20218;-45
2021/07/07 07:11:32;;;;;;;4.53;3.10;;;18.80;99.90;;;;;;4938106;29;20327;-46
2021/07/07 07:14:00;;;;;;;3.75;3.38;;;18.90;99.90;;;;;;4937883;29;20216;-46
2021/07/07 07:16:28;;;;;;;5.22;3.90;;;18.90;99.90;;;;;;4938002;29;20304;-47
2021/07/07 07:18:56;;;;;;;4.93;3.75;;;18.90;99.90;;;;;;4937592;29;20596;-47
2021/07/07 07:21:24;;;;;;;4.05;3.65;;;18.90;99.90;;;;;;4937445;29;20606;-44
2021/07/07 07:23:53;;;;;;;5.57;4.80;;;19.00;99.90;;;;;;4937671;29;20212;-43
2021/07/07 07:26:22;;;;;;;4.90;3.92;;;18.90;99.90;;;;;;4937840;29;20220;-42
2021/07/07 07:28:50;;;;;;;5.00;4.60;;;18.90;99.90;;;;;;4937806;29;20216;-44
2021/07/07 07:31:22;;;;;;;6.95;5.10;;;18.90;99.90;;;;;;4937470;29;20232;-45
2021/07/07 07:33:50;;;;;;;4.35;4.05;;;19.00;99.90;;;;;;4937396;29;20229;-47
2021/07/07 07:36:25;;;;;;;5.30;4.90;;;19.00;99.90;;;;;;4937547;29;20223;-46
2021/07/07 07:39:04;;;;;;;5.22;4.68;;;19.10;99.90;;;;;;4937089;29;20208;-46
2021/07/07 07:41:34;;;;;;;7.05;4.35;;;19.10;99.90;;;;;;4937040;29;20207;-46
2021/07/07 07:44:03;;;;;;;5.25;4.85;;;19.10;99.90;;;;;;4937212;29;20212;-47
2021/07/07 07:46:31;;;;;;;8.48;7.68;;;19.20;99.90;;;;;;4936897;29;20271;-48
2021/07/07 07:49:00;;;;;;;12.38;10.43;;;19.20;99.90;;;;;;4936763;29;20262;-46
2021/07/07 07:51:29;;;;;;;8.88;6.65;;;19.20;99.90;;;;;;4937001;29;20264;-45
2021/07/07 07:53:59;;;;;;;8.38;6.38;;;19.20;99.90;;;;;;4936850;29;20295;-45
2021/07/07 07:56:27;;;;;;;4.68;4.20;;;19.30;99.90;;;;;;4936992;29;20655;-45
2021/07/07 07:58:55;;;;;;;3.75;3.28;;;19.30;99.90;;;;;;4936625;29;20303;-47
2021/07/07 08:01:24;;;;;;;3.25;2.95;;;19.30;99.90;;;;;;4936852;29;20295;-45
2021/07/07 08:03:52;;;;;;;4.70;2.33;;;19.30;99.90;;;;;;4935861;29;20212;-48
2021/07/07 08:06:20;;;;;;;3.45;3.15;;;19.30;99.90;;;;;;4937056;29;20260;-47
2021/07/07 08:08:48;;;;;;;3.00;2.80;;;19.30;99.90;;;;;;4936594;29;20298;-47
2021/07/07 08:11:17;;;;;;;4.57;2.90;;;19.40;99.90;;;;;;4936332;29;20795;-46
2021/07/07 08:13:45;;;;;;;3.92;3.40;;;19.50;99.90;;;;;;4936503;29;20247;-45
2021/07/07 08:16:13;;;;;;;3.65;2.67;;;19.60;99.90;;;;;;4936650;29;20212;-47
2021/07/07 08:18:42;;;;;;;3.40;2.38;;;19.60;99.90;;;;;;4936440;29;20676;-48
2021/07/07 08:21:10;;;;;;;2.33;2.10;;;19.60;99.90;;;;;;4936272;29;20216;-45
2021/07/07 08:23:38;;;;;;;4.35;3.97;;;19.60;99.90;;;;;;4936200;29;20236;-46
2021/07/07 08:26:06;;;;;;;2.88;2.67;;;19.50;99.90;;;;;;4936213;29;20223;-44
2021/07/07 08:28:35;;;;;;;3.20;2.95;;;19.50;99.90;;;;;;4936429;29;20243;-44
2021/07/07 08:31:03;;;;;;;3.00;2.58;;;19.50;99.90;;;;;;4936254;29;20236;-44
2021/07/07 08:33:31;;;;;;;3.15;2.47;;;19.50;99.90;;;;;;4936041;29;20208;-43
2021/07/07 08:35:59;;;;;;;4.50;2.83;;;19.50;99.90;;;;;;4934638;29;20319;-43
2021/07/07 08:38:27;;;;;;;4.43;3.30;;;19.60;99.90;;;;;;4928075;29;20307;-46
2021/07/07 08:40:57;;;;;;;3.15;2.60;;;19.60;99.90;;;;;;4917040;29;20341;-45
2021/07/07 08:43:25;;;;;;;4.85;2.80;;;19.60;99.90;;;;;;4916832;29;20208;-45
2021/07/07 08:45:57;;;;;;;2.85;2.65;;;19.60;99.90;;;;;;4916970;29;20549;-43
2021/07/07 08:48:25;;;;;;;2.90;2.40;;;19.60;99.90;;;;;;4916787;29;20240;-48
2021/07/07 08:50:58;;;;;;;4.40;2.47;;;19.70;99.90;;;;;;4916548;29;20674;-45
2021/07/07 08:53:26;;;;;;;3.03;2.78;;;19.60;99.90;;;;;;4916912;29;20212;-46
2021/07/07 08:55:54;;;;;;;3.58;3.13;;;19.70;99.90;;;;;;4916759;29;20641;-45
2021/07/07 08:58:22;;;;;;;3.08;2.33;;;19.70;99.90;;;;;;4916774;29;20367;-43
2021/07/07 09:00:51;;;;;;;12.10;3.88;;;19.70;99.90;;;;;;4916935;29;20327;-46
2021/07/07 09:03:21;;;;;;;5.88;3.03;;;19.60;99.90;;;;;;4916697;29;20299;-44
2021/07/07 09:05:52;;;;;;;3.90;3.00;;;19.50;99.90;;;;;;4916436;29;20221;-45
2021/07/07 09:08:25;;;;;;;5.72;3.13;;;19.50;99.90;;;;;;4916795;29;20300;-45
2021/07/07 09:10:54;;;;;;;3.30;3.10;;;19.40;99.90;;;;;;4916166;29;20290;-49
2021/07/07 09:13:24;;;;;;;3.88;3.53;;;19.30;99.90;;;;;;4916271;29;20297;-43
2021/07/07 09:15:52;;;;;;;5.35;4.13;;;19.30;99.90;;;;;;4916090;29;20219;-44
2021/07/07 09:18:34;;;;;;;6.05;3.90;;;19.20;99.90;;;;;;4916158;29;20303;-46
2021/07/07 09:21:02;;;;;;;5.70;5.03;;;19.20;99.90;;;;;;4916159;29;20676;-45
2021/07/07 09:23:31;;;;;;;6.28;5.68;;;19.20;99.90;;;;;;4915981;29;20252;-46
2021/07/07 09:26:02;;;;;;;5.65;4.80;;;19.20;99.90;;;;;;4916233;29;20296;-45
2021/07/07 09:28:31;;;;;;;5.93;3.60;;;19.30;99.90;;;;;;4915879;29;20240;-46
2021/07/07 09:31:02;;;;;;;6.70;3.83;;;19.30;99.90;;;;;;4915877;29;20240;-45
2021/07/07 09:33:42;;;;;;;5.13;3.40;;;19.30;99.90;;;;;;4916173;29;20217;-45
2021/07/07 09:36:20;;;;;;;4.97;3.35;;;19.30;99.90;;;;;;4916139;29;20221;-44
2021/07/07 09:38:50;;;;;;;4.13;3.83;;;19.20;99.90;;;;;;4915681;29;20213;-45
2021/07/07 09:41:19;;;;;;;4.28;3.88;;;19.20;99.90;;;;;;4916087;29;20246;-43
2021/07/07 09:43:47;;;;;;;5.53;4.32;;;19.20;99.90;;;;;;4916087;29;20312;-44
2021/07/07 09:46:16;;;;;;;5.25;3.97;;;19.30;99.90;;;;;;4915798;29;20631;-45
2021/07/07 09:48:47;;;;;;;6.57;3.88;;;19.30;99.90;;;;;;4915631;29;20245;-44
2021/07/07 09:51:15;;;;;;;7.53;4.45;;;19.30;99.90;;;;;;4916318;29;20237;-47
2021/07/07 09:53:44;;;;;;;5.40;3.28;;;19.40;99.90;;;;;;4915715;29;20586;-45
2021/07/07 09:56:12;;;;;;;3.88;3.35;;;19.40;99.90;;;;;;4915864;29;20319;-45
2021/07/07 09:58:40;;;;;;;4.45;3.30;;;19.50;99.90;;;;;;4915722;29;20216;-45
2021/07/07 10:01:08;;;;;;;5.75;4.15;;;19.50;99.90;;;;;;4915683;29;20303;-45
2021/07/07 10:03:37;;;;;;;4.63;3.40;;;19.50;99.90;;;;;;4915556;29;20396;-46
2021/07/07 10:06:07;;;;;;;3.95;3.58;;;19.60;99.90;;;;;;4915466;29;20227;-46
2021/07/07 10:08:36;;;;;;;3.92;3.53;;;19.60;99.90;;;;;;4915522;29;20209;-47
2021/07/07 10:11:05;;;;;;;4.55;4.15;;;19.60;99.90;;;;;;4915488;29;20296;-46
2021/07/07 10:13:33;;;;;;;3.92;3.63;;;19.60;99.90;;;;;;4915423;29;20299;-45
2021/07/07 10:16:02;;;;;;;7.72;6.93;;;19.60;99.90;;;;;;4915074;29;20631;-46
2021/07/07 10:18:30;;;;;;;3.30;3.10;;;19.60;99.90;;;;;;4915445;29;20307;-45
2021/07/07 10:20:59;;;;;;;2.22;2.10;;;19.60;99.90;;;;;;4915576;29;20248;-44
2021/07/07 10:23:29;;;;;;;2.30;2.10;;;19.50;99.90;;;;;;4915643;29;20307;-47
2021/07/07 10:26:00;;;;;;;3.38;2.45;;;19.50;99.90;;;;;;4915438;29;20237;-46
2021/07/07 10:28:28;;;;;;;3.25;2.17;;;19.50;99.90;;;;;;4914989;29;20305;-43
2021/07/07 10:30:59;;;;;;;2.38;2.17;;;19.50;99.90;;;;;;4915157;29;20216;-44
2021/07/07 10:33:29;;;;;;;2.85;2.20;;;19.50;99.90;;;;;;4915206;29;20696;-43
2021/07/07 10:36:18;;;;;;;4.10;2.40;;;19.60;99.90;;;;;;4915171;29;20688;-43
2021/07/07 10:38:53;;;;;;;5.05;2.17;;;19.70;99.90;;;;;;4915191;29;20312;-43
2021/07/07 10:41:51;;;;;;;1.95;1.80;;;19.80;99.90;;;;;;4915154;29;20216;-48
2021/07/07 10:44:49;;;;;;;6.72;5.00;;;19.90;99.90;;;;;;4915425;29;20697;-44
2021/07/07 10:47:37;;;;;;;4.20;2.72;;;20.00;99.90;;;;;;4912378;29;20269;-43
2021/07/07 10:50:08;;;;;;;6.57;4.05;;;20.00;99.90;;;;;;4915265;29;20252;-47
2021/07/07 10:52:40;;;;;;;5.20;3.22;;;20.10;99.90;;;;;;4915133;29;20730;-47
2021/07/07 10:55:12;;;;;;;3.50;3.20;;;20.10;99.90;;;;;;4915502;29;20255;-46
2021/07/07 10:57:41;;;;;;;3.60;3.30;;;20.10;99.90;;;;;;4915212;29;20299;-43
2021/07/07 11:00:26;;;;;;;4.00;3.60;;;20.00;99.90;;;;;;4915609;29;20295;-44
2021/07/07 11:03:32;;;;;;;5.90;3.28;;;19.90;99.90;;;;;;4915322;29;20299;-44
2021/07/07 11:06:16;;;;;;;7.03;3.75;;;19.90;99.90;;;;;;4912955;29;20264;-44
2021/07/07 11:08:44;;;;;;;7.28;3.55;;;19.90;99.90;;;;;;4903355;29;20638;-44
2021/07/07 11:11:22;;;;;;;4.53;3.38;;;19.80;99.90;;;;;;4915494;29;20229;-45
2021/07/07 11:13:51;;;;;;;3.42;2.10;;;19.70;99.90;;;;;;4915163;29;20240;-48
2021/07/07 11:16:21;;;;;;;2.65;2.45;;;19.70;99.90;;;;;;4915419;29;20231;-47
2021/07/07 11:18:49;;;;;;;3.00;2.15;;;19.70;99.90;;;;;;4915290;29;20274;-43
2021/07/07 11:21:19;;;;;;;4.50;2.25;;;19.60;99.90;;;;;;4915436;29;20216;-46
2021/07/07 11:23:48;;;;;;;2.17;1.98;;;19.70;99.90;;;;;;4915145;29;20209;-47
2021/07/07 11:26:18;;;;;;;2.78;2.20;;;19.70;99.90;;;;;;4915084;29;20215;-46
2021/07/07 11:28:46;;;;;;;3.42;3.13;;;19.80;99.90;;;;;;4915191;29;20209;-46
2021/07/07 11:31:14;;;;;;;3.10;2.80;;;19.90;99.90;;;;;;4915047;29;20248;-44
2021/07/07 11:33:42;;;;;;;6.10;3.15;;;20.00;99.90;;;;;;4915268;29;20627;-47
2021/07/07 11:36:10;;;;;;;8.70;3.50;;;20.10;99.90;;;;;;4915308;29;20217;-44
2021/07/07 11:38:38;;;;;;;7.65;3.53;;;20.10;99.90;;;;;;4915144;29;20221;-46
2021/07/07 11:41:06;;;;;;;4.53;2.40;;;20.20;99.90;;;;;;4918455;29;20598;-48
2021/07/07 11:43:35;;;;;;;3.10;2.65;;;20.20;99.90;;;;;;4918520;29;20236;-46
2021/07/07 11:46:06;;;;;;;4.15;3.33;;;20.20;99.90;;;;;;4918398;29;20345;-44
2021/07/07 11:48:38;;;;;;;3.10;2.90;;;20.30;99.90;;;;;;4918191;29;20307;-46
2021/07/07 11:51:12;;;;;;;3.28;2.97;;;20.20;99.90;;;;;;4918424;29;20316;-45
2021/07/07 11:53:41;;;;;;;3.30;3.03;;;20.30;99.90;;;;;;4918385;29;20233;-46
2021/07/07 11:56:12;;;;;;;6.15;3.67;;;20.30;99.90;;;;;;4918242;29;20213;-46
2021/07/07 11:58:43;;;;;;;5.80;4.07;;;20.30;99.90;;;;;;4918600;29;20212;-49
2021/07/07 12:01:17;;;;;;;7.00;4.60;;;20.30;99.90;;;;;;4918313;29;20212;-46
2021/07/07 12:03:57;;;;;;;7.57;4.28;;;20.30;99.90;;;;;;4918134;29;20264;-45
2021/07/07 12:06:32;;;;;;;6.78;4.25;;;20.40;99.90;;;;;;4918096;29;20256;-49
2021/07/07 12:09:01;;;;;;;9.27;5.05;;;20.40;99.90;;;;;;4917954;29;20263;-47
2021/07/07 12:11:29;;;;;;;5.38;4.97;;;20.50;99.90;;;;;;4918123;29;20634;-46
2021/07/07 12:14:03;;;;;;;6.57;4.32;;;20.60;99.90;;;;;;4917916;29;20228;-46
2021/07/07 12:16:33;;;;;;;4.38;3.97;;;20.70;99.90;;;;;;4918035;29;20653;-48
2021/07/07 12:19:04;;;;;;;3.67;3.38;;;20.90;99.90;;;;;;4917875;29;20621;-47
2021/07/07 12:21:38;;;;;;;12.20;3.88;;;21.00;99.90;;;;;;4917665;29;20244;-47
2021/07/07 12:24:08;;;;;;;4.75;4.35;;;21.10;99.90;;;;;;4917790;29;20299;-45
2021/07/07 12:26:38;;;;;;;66.78;9.02;;;21.20;99.90;;;;;;4917500;29;20213;-46
2021/07/07 12:29:11;;;;;;;4.28;3.95;;;21.30;99.90;;;;;;4917342;29;20212;-44
2021/07/07 12:31:41;;;;;;;3.78;3.28;;;21.50;99.90;;;;;;4917710;29;20673;-48
2021/07/07 12:34:11;;;;;;;3.47;3.17;;;21.70;99.90;;;;;;4917554;29;20312;-49
2021/07/07 12:36:40;;;;;;;4.00;3.63;;;21.90;99.90;;;;;;4917489;29;20641;-46
2021/07/07 12:39:17;;;;;;;4.32;3.92;;;22.00;99.90;;;;;;4917209;29;20703;-47
2021/07/07 12:41:48;;;;;;;7.60;4.65;;;22.10;99.90;;;;;;4917393;29;20292;-46
2021/07/07 12:44:26;;;;;;;4.03;3.72;;;22.10;99.90;;;;;;4917404;29;20304;-47
2021/07/07 12:46:57;;;;;;;15.93;5.53;;;22.10;99.90;;;;;;4916977;29;20244;-46
2021/07/07 12:49:42;;;;;;;4.28;3.38;;;22.10;99.90;;;;;;4917099;29;20209;-48
2021/07/07 12:52:25;;;;;;;5.78;3.70;;;22.20;99.90;;;;;;4917311;29;20240;-45
2021/07/07 12:55:14;;;;;;;3.63;3.33;;;22.10;99.90;;;;;;4916998;29;20252;-51
2021/07/07 12:57:53;;;;;;;5.32;3.85;;;22.00;99.90;;;;;;4917057;29;20270;-46
2021/07/07 13:00:40;;;;;;;3.60;3.08;;;21.90;99.90;;;;;;4917316;29;20630;-45